Main page
METAR-TAF:

METAR-TAF

Airports :

Plovdiv Airport

Plovdiv, Bulgaria

latitude: 42-08N, longitude: 024-45E, elevation: 179 m

Current weather observation

The report was made 42 minutes ago, at 05:30 UTC
Wind 3 kt from the West, varying between West/Southwest and Northwest
Temperature 9°C
Humidity 76%
Pressure 1020 hPa
Visibility 10 km or more

METAR: LBPD 250530Z AUTO 27003KT 250V310 9999 NCD 09/05 Q1020 NOSIG

Time: 09:12 (06:12 UTC)

Forecast

The report was made 7 hours and 12 minutes ago, at 23:00 UTC
Forecast valid from 25 at 00 UTC to 25 at 24 UTC
Wind 4 kt from variable directions
Visibility 10 km or more
no clouds below 1500 m and no cumulonimbus

TAF: LBPD 242300Z 2500/2524 VRB04KT CAVOK

Weather observations and forecasts of more than 4000 airports (METAR and TAF reports).

The available stations are represented by yellow and red dots on the map.

Hover mouse over dot to see the name of the station.

Then click to see weather observations and forecasts.

To change the map : click on the green buttons with a black cross to zoom in, on the green button with a dash to zoom out, or on the green arrows for adjacent maps.


METAR-TAF: